createdAt,value
2023-01-09T00:00:27.529Z,3.20
2023-01-09T00:02:57.951Z,3.30
2023-01-09T00:05:26.374Z,3.30
2023-01-09T00:07:54.081Z,3.20
2023-01-09T00:10:22.307Z,3.30
2023-01-09T00:12:51.071Z,3.20
2023-01-09T00:15:20.566Z,3.30
2023-01-09T00:17:50.539Z,3.20
2023-01-09T00:20:27.501Z,3.30
2023-01-09T00:22:55.060Z,3.30
2023-01-09T00:25:23.338Z,3.40
2023-01-09T00:27:51.676Z,3.30
2023-01-09T00:30:21.688Z,3.30
2023-01-09T00:32:50.053Z,3.40
2023-01-09T00:35:27.245Z,3.40
2023-01-09T00:37:54.658Z,3.40
2023-01-09T00:40:22.033Z,3.40
2023-01-09T00:42:54.243Z,3.40
2023-01-09T00:45:28.990Z,3.40
2023-01-09T00:48:11.266Z,3.40
2023-01-09T00:50:41.810Z,3.40
2023-01-09T00:53:17.359Z,3.30
2023-01-09T00:55:54.932Z,3.30
2023-01-09T00:58:22.055Z,3.30
2023-01-09T01:00:49.729Z,3.30
2023-01-09T01:03:17.944Z,3.40
2023-01-09T01:06:04.450Z,3.40
2023-01-09T01:08:32.406Z,3.50
2023-01-09T01:11:05.237Z,3.40
2023-01-09T01:13:35.581Z,3.30
2023-01-09T01:16:09.310Z,3.30
2023-01-09T01:21:20.083Z,3.30
2023-01-09T01:23:49.266Z,3.30
2023-01-09T01:26:20.556Z,3.30
2023-01-09T01:28:50.055Z,3.40
2023-01-09T01:31:19.484Z,3.40
2023-01-09T01:33:49.243Z,3.30
2023-01-09T01:36:17.604Z,3.40
2023-01-09T01:38:49.688Z,3.40
2023-01-09T01:41:30.283Z,3.40
2023-01-09T01:44:06.532Z,3.30
2023-01-09T01:46:35.076Z,3.40
2023-01-09T01:49:15.792Z,3.50
2023-01-09T01:51:50.125Z,3.50
2023-01-09T01:54:24.998Z,3.50
2023-01-09T01:57:01.562Z,3.50
2023-01-09T01:59:42.636Z,3.50
2023-01-09T02:05:02.965Z,3.50
2023-01-09T02:07:32.250Z,3.40
2023-01-09T02:10:00.683Z,3.50
2023-01-09T02:12:31.348Z,3.30
2023-01-09T02:15:08.209Z,3.30
2023-01-09T02:17:54.467Z,3.30
2023-01-09T02:20:51.076Z,3.50
2023-01-09T02:24:05.882Z,3.40
2023-01-09T02:26:53.526Z,3.30
2023-01-09T02:29:45.357Z,3.30
2023-01-09T02:32:21.421Z,3.30
2023-01-09T02:35:23.214Z,3.30
2023-01-09T02:38:26.441Z,3.30
2023-01-09T02:41:00.681Z,3.30
2023-01-09T02:43:37.551Z,3.40
2023-01-09T02:46:12.228Z,3.40
2023-01-09T02:48:46.544Z,3.30
2023-01-09T02:51:42.044Z,3.30
2023-01-09T02:54:56.858Z,3.40
2023-01-09T02:57:45.220Z,3.40
2023-01-09T03:00:49.793Z,3.30
2023-01-09T03:03:50.489Z,3.30
2023-01-09T03:06:45.511Z,3.40
2023-01-09T03:09:21.130Z,3.40
2023-01-09T03:11:53.422Z,3.40
2023-01-09T03:14:25.215Z,3.40
2023-01-09T03:17:02.676Z,3.40
2023-01-09T03:19:32.511Z,3.40
2023-01-09T03:22:04.083Z,3.50
2023-01-09T03:24:31.116Z,3.40
2023-01-09T03:27:00.589Z,3.40
2023-01-09T03:29:29.446Z,3.40
2023-01-09T03:32:00.137Z,3.40
2023-01-09T03:34:28.387Z,3.40
2023-01-09T03:36:56.104Z,3.30
2023-01-09T03:39:23.027Z,3.30
2023-01-09T03:41:52.300Z,3.40
2023-01-09T03:44:20.852Z,3.50
2023-01-09T03:46:51.226Z,3.60
2023-01-09T03:49:21.294Z,3.60
2023-01-09T03:54:32.059Z,3.70
2023-01-09T03:57:00.418Z,3.70
2023-01-09T03:59:28.066Z,3.70
2023-01-09T04:01:55.110Z,3.80
2023-01-09T04:04:24.688Z,3.70
2023-01-09T04:06:52.767Z,3.80
2023-01-09T04:09:24.762Z,3.80
2023-01-09T04:11:52.070Z,3.80
2023-01-09T04:14:18.991Z,3.90
2023-01-09T04:16:47.484Z,3.90
2023-01-09T04:19:16.258Z,4.00
2023-01-09T04:21:47.611Z,4.00
2023-01-09T04:24:15.108Z,4.00
2023-01-09T04:29:26.921Z,4.10
2023-01-09T04:31:53.873Z,4.20
2023-01-09T04:34:25.624Z,4.40
2023-01-09T04:36:54.734Z,4.30
2023-01-09T04:39:24.384Z,4.30
2023-01-09T04:41:52.896Z,4.30
2023-01-09T04:44:29.805Z,4.20
2023-01-09T04:47:02.208Z,4.10
2023-01-09T04:49:31.584Z,4.20
2023-01-09T04:52:02.117Z,4.10
2023-01-09T04:54:31.078Z,4.10
2023-01-09T04:57:03.314Z,4.20
2023-01-09T04:59:31.470Z,4.10
2023-01-09T05:02:00.065Z,4.10
2023-01-09T05:04:28.592Z,4.10
2023-01-09T05:06:58.357Z,4.00
2023-01-09T05:09:26.401Z,4.00
2023-01-09T05:12:04.334Z,3.90
2023-01-09T05:14:32.121Z,4.00
2023-01-09T05:17:00.265Z,4.10
2023-01-09T05:19:28.001Z,4.10
2023-01-09T05:21:58.466Z,4.10
2023-01-09T05:24:27.961Z,4.20
2023-01-09T05:26:56.213Z,4.30
2023-01-09T05:29:24.038Z,4.30
2023-01-09T05:31:52.875Z,4.30
2023-01-09T05:34:23.369Z,4.30
2023-01-09T05:36:53.101Z,4.40
2023-01-09T05:39:21.155Z,4.40
2023-01-09T05:41:49.381Z,4.40
2023-01-09T05:44:19.803Z,4.50
2023-01-09T05:46:48.975Z,4.60
2023-01-09T05:49:17.500Z,4.70
2023-01-09T05:51:48.227Z,4.80
2023-01-09T05:54:18.316Z,4.80
2023-01-09T05:56:46.684Z,4.80
2023-01-09T05:59:16.113Z,4.90
2023-01-09T06:04:29.916Z,4.90
2023-01-09T06:06:58.480Z,4.90
2023-01-09T06:09:25.493Z,4.90
2023-01-09T06:11:54.797Z,4.90
2023-01-09T06:14:24.318Z,4.90
2023-01-09T06:16:52.041Z,4.80
2023-01-09T06:19:19.012Z,4.80
2023-01-09T06:21:50.054Z,4.80
2023-01-09T06:24:18.334Z,4.90
2023-01-09T06:26:46.249Z,5.00
2023-01-09T06:29:18.036Z,4.90
2023-01-09T06:31:47.746Z,5.00
2023-01-09T06:34:18.358Z,5.00
2023-01-09T06:36:50.104Z,5.00
2023-01-09T06:39:18.069Z,5.00
2023-01-09T06:41:48.720Z,4.90
2023-01-09T06:44:16.112Z,4.90
2023-01-09T06:49:24.947Z,5.00
2023-01-09T06:51:53.435Z,5.00
2023-01-09T06:54:22.181Z,5.00
2023-01-09T06:56:50.032Z,5.00
2023-01-09T06:59:19.616Z,5.00
2023-01-09T07:01:47.782Z,5.10
2023-01-09T07:04:18.335Z,5.10
2023-01-09T07:06:49.660Z,5.10
2023-01-09T07:09:17.012Z,5.10
2023-01-09T07:11:44.565Z,5.00
2023-01-09T07:14:12.751Z,5.00
2023-01-09T07:16:40.952Z,5.00
2023-01-09T07:19:07.881Z,5.00
2023-01-09T07:21:34.991Z,5.00
2023-01-09T07:24:01.928Z,5.10
2023-01-09T07:26:32.361Z,5.00
2023-01-09T07:29:02.400Z,5.10
2023-01-09T07:31:31.766Z,5.10
2023-01-09T07:34:11.573Z,5.10
2023-01-09T07:36:38.550Z,5.10
2023-01-09T07:39:06.116Z,5.20
2023-01-09T07:44:17.102Z,5.10
2023-01-09T07:46:45.439Z,5.00
2023-01-09T07:49:15.108Z,5.00
2023-01-09T07:51:45.131Z,4.80
2023-01-09T07:54:16.135Z,4.70
2023-01-09T07:56:44.291Z,4.80
2023-01-09T07:59:14.695Z,4.80
2023-01-09T08:01:45.718Z,4.70
2023-01-09T08:04:18.812Z,4.70
2023-01-09T08:06:50.463Z,4.70
2023-01-09T08:12:01.093Z,4.80
2023-01-09T08:14:30.750Z,4.80
2023-01-09T08:17:03.293Z,4.70
2023-01-09T08:22:17.558Z,4.70
2023-01-09T08:24:54.460Z,4.70
2023-01-09T08:27:24.612Z,4.70
2023-01-09T08:29:54.870Z,4.70
2023-01-09T08:32:23.980Z,4.70
2023-01-09T08:34:53.459Z,4.70
2023-01-09T08:37:24.079Z,4.70
2023-01-09T08:39:51.554Z,4.80
2023-01-09T08:42:44.058Z,4.80
2023-01-09T08:45:35.553Z,4.80
2023-01-09T08:48:07.030Z,4.80
2023-01-09T08:50:37.680Z,4.80
2023-01-09T08:53:05.165Z,4.90
2023-01-09T08:55:37.237Z,4.90
2023-01-09T08:58:10.432Z,4.90
2023-01-09T09:00:44.645Z,4.90
2023-01-09T09:03:14.727Z,5.00
2023-01-09T09:08:26.097Z,5.10
2023-01-09T09:10:54.493Z,5.10
2023-01-09T09:13:22.710Z,5.20
2023-01-09T09:18:38.160Z,5.30
2023-01-09T09:21:10.732Z,5.40
2023-01-09T09:23:43.546Z,5.50
2023-01-09T09:26:14.528Z,5.50
2023-01-09T09:28:52.554Z,5.60
2023-01-09T09:31:21.228Z,5.70
2023-01-09T09:33:49.113Z,5.80
2023-01-09T09:36:22.630Z,5.90
2023-01-09T09:38:50.220Z,6.00
2023-01-09T09:42:14.657Z,6.10
2023-01-09T09:45:12.424Z,6.20
2023-01-09T09:48:11.994Z,6.30
2023-01-09T09:51:04.814Z,6.40
2023-01-09T09:53:51.137Z,6.50
2023-01-09T09:56:24.544Z,6.60
2023-01-09T09:59:21.878Z,6.60
2023-01-09T10:02:18.260Z,6.60
2023-01-09T10:05:28.036Z,6.60
2023-01-09T10:08:21.052Z,6.60
2023-01-09T10:11:03.561Z,6.70
2023-01-09T10:13:53.477Z,6.70
2023-01-09T10:17:06.963Z,6.80
2023-01-09T10:19:56.128Z,6.70
2023-01-09T10:22:51.432Z,6.70
2023-01-09T10:25:52.097Z,6.80
2023-01-09T10:28:59.243Z,6.70
2023-01-09T10:31:49.630Z,6.80
2023-01-09T10:34:54.464Z,6.70
2023-01-09T10:37:34.568Z,6.80
2023-01-09T10:40:25.131Z,6.90
2023-01-09T10:43:16.605Z,6.80
2023-01-09T10:46:25.857Z,6.90
2023-01-09T10:49:01.693Z,6.90
2023-01-09T10:51:48.215Z,6.90
2023-01-09T10:54:27.453Z,7.00
2023-01-09T10:57:19.853Z,7.00
2023-01-09T10:59:48.740Z,7.00
2023-01-09T11:02:43.656Z,7.00
2023-01-09T11:05:17.747Z,7.10
2023-01-09T11:07:53.274Z,7.10
2023-01-09T11:10:45.096Z,7.10
2023-01-09T11:13:25.996Z,7.20
2023-01-09T11:16:05.166Z,7.20
2023-01-09T11:18:35.355Z,7.30
2023-01-09T11:21:28.710Z,7.30
2023-01-09T11:23:57.008Z,7.40
2023-01-09T11:26:29.012Z,7.40
2023-01-09T11:29:21.994Z,7.40
2023-01-09T11:31:59.781Z,7.40
2023-01-09T11:34:35.632Z,7.40
2023-01-09T11:37:10.257Z,7.40
2023-01-09T11:39:48.515Z,7.30
2023-01-09T11:42:48.557Z,7.30
2023-01-09T11:45:29.948Z,7.30
2023-01-09T11:48:00.951Z,7.30
2023-01-09T11:50:38.227Z,7.30
2023-01-09T11:53:19.667Z,7.30
2023-01-09T11:56:03.991Z,7.40
2023-01-09T11:58:35.970Z,7.40
2023-01-09T12:01:31.991Z,7.40
2023-01-09T12:04:37.843Z,7.40
2023-01-09T12:07:48.470Z,7.40
2023-01-09T12:10:42.533Z,7.50
2023-01-09T12:13:32.561Z,7.60
2023-01-09T12:16:30.532Z,7.60
2023-01-09T12:19:21.273Z,7.60
2023-01-09T12:22:12.184Z,7.70
2023-01-09T12:25:11.152Z,7.70
2023-01-09T12:28:13.473Z,7.80
2023-01-09T12:31:16.805Z,7.80
2023-01-09T12:33:58.875Z,7.80
2023-01-09T12:37:01.818Z,7.80
2023-01-09T12:39:48.665Z,7.90
2023-01-09T12:42:54.530Z,7.90
2023-01-09T12:46:07.973Z,7.90
2023-01-09T12:49:00.994Z,7.90
2023-01-09T12:51:47.969Z,7.90
2023-01-09T12:54:39.470Z,7.90
2023-01-09T12:57:22.466Z,7.90
2023-01-09T13:00:20.894Z,7.80
2023-01-09T13:03:14.095Z,7.80
2023-01-09T13:05:53.513Z,7.80
2023-01-09T13:08:31.871Z,7.80
2023-01-09T13:11:19.420Z,7.80
2023-01-09T13:14:12.225Z,7.80
2023-01-09T13:17:00.400Z,7.90
2023-01-09T13:19:34.593Z,7.90
2023-01-09T13:22:06.046Z,7.80
2023-01-09T13:25:16.002Z,7.90
2023-01-09T13:27:59.247Z,7.80
2023-01-09T13:30:49.460Z,7.90
2023-01-09T13:33:26.347Z,7.80
2023-01-09T13:35:57.484Z,7.80
2023-01-09T13:38:31.310Z,7.80
2023-01-09T13:41:29.358Z,7.80
2023-01-09T13:44:01.400Z,7.80
2023-01-09T13:46:56.490Z,7.80
2023-01-09T13:49:45.256Z,7.80
2023-01-09T13:52:48.402Z,7.80
2023-01-09T13:55:26.646Z,7.80
2023-01-09T13:58:17.060Z,7.80
2023-01-09T14:00:57.489Z,7.80
2023-01-09T14:03:35.720Z,7.80
2023-01-09T14:06:06.626Z,7.80
2023-01-09T14:08:36.735Z,7.80
2023-01-09T14:11:06.583Z,7.80
2023-01-09T14:13:44.983Z,7.80
2023-01-09T14:16:23.893Z,7.80
2023-01-09T14:19:11.156Z,7.80
2023-01-09T14:22:09.303Z,7.80
2023-01-09T14:24:49.326Z,7.80
2023-01-09T14:28:01.201Z,7.80
2023-01-09T14:30:35.214Z,7.80
2023-01-09T14:33:42.004Z,7.70
2023-01-09T14:36:22.256Z,7.70
2023-01-09T14:39:00.578Z,7.70
2023-01-09T14:42:05.527Z,7.70
2023-01-09T14:44:49.714Z,7.80
2023-01-09T14:47:48.256Z,7.70
2023-01-09T14:50:30.807Z,7.70
2023-01-09T14:53:18.717Z,7.80
2023-01-09T14:56:01.746Z,8.10
2023-01-09T14:58:37.139Z,8.40
2023-01-09T15:01:17.008Z,8.20
2023-01-09T15:04:08.885Z,8.00
2023-01-09T15:06:45.620Z,7.90
2023-01-09T15:09:44.654Z,7.90
2023-01-09T15:12:20.943Z,7.80
2023-01-09T15:14:55.944Z,8.00
2023-01-09T15:17:33.415Z,7.90
2023-01-09T15:20:07.785Z,7.80
2023-01-09T15:22:41.620Z,7.80
2023-01-09T15:25:38.916Z,7.80
2023-01-09T15:28:32.334Z,7.70
2023-01-09T15:31:09.659Z,7.70
2023-01-09T15:33:42.950Z,7.70
2023-01-09T15:36:27.167Z,7.70
2023-01-09T15:38:55.349Z,7.60
2023-01-09T15:41:50.388Z,7.70
2023-01-09T15:44:29.288Z,7.70
2023-01-09T15:46:59.457Z,7.60
2023-01-09T15:49:27.225Z,7.60
2023-01-09T15:54:50.115Z,7.60
2023-01-09T15:57:34.535Z,7.60
2023-01-09T16:00:29.487Z,7.60
2023-01-09T16:03:11.429Z,7.60
2023-01-09T16:06:08.845Z,7.60
2023-01-09T16:08:42.848Z,7.60
2023-01-09T16:11:25.651Z,7.60
2023-01-09T16:13:59.411Z,7.70
2023-01-09T16:16:36.485Z,7.60
2023-01-09T16:19:07.257Z,7.60
2023-01-09T16:21:39.301Z,7.60
2023-01-09T16:24:27.345Z,7.60
2023-01-09T16:27:31.425Z,7.60
2023-01-09T16:30:02.241Z,7.60
2023-01-09T16:32:52.351Z,7.70
2023-01-09T16:35:27.228Z,7.60
2023-01-09T16:37:57.127Z,7.60
2023-01-09T16:40:30.059Z,7.60
2023-01-09T16:43:03.623Z,7.60
2023-01-09T16:45:44.816Z,7.60
2023-01-09T16:48:17.627Z,7.60
2023-01-09T16:50:47.640Z,7.50
2023-01-09T16:56:05.237Z,7.50
2023-01-09T17:01:17.044Z,7.50
2023-01-09T17:03:49.804Z,7.50
2023-01-09T17:06:30.183Z,7.50
2023-01-09T17:08:58.944Z,7.50
2023-01-09T17:11:31.484Z,7.50
2023-01-09T17:14:02.447Z,7.50
2023-01-09T17:16:30.558Z,7.50
2023-01-09T17:19:01.484Z,7.40
2023-01-09T17:21:30.737Z,7.50
2023-01-09T17:24:18.606Z,7.50
2023-01-09T17:27:12.278Z,7.50
2023-01-09T17:29:42.319Z,7.50
2023-01-09T17:32:18.120Z,7.50
2023-01-09T17:34:48.341Z,7.40
2023-01-09T17:37:19.383Z,7.50
2023-01-09T17:39:50.504Z,7.40
2023-01-09T17:42:18.544Z,7.50
2023-01-09T17:44:48.309Z,7.50
2023-01-09T17:47:16.778Z,7.50
2023-01-09T17:49:47.555Z,7.50
2023-01-09T17:52:17.101Z,7.50
2023-01-09T17:54:49.035Z,7.50
2023-01-09T17:57:21.216Z,7.50
2023-01-09T17:59:49.455Z,7.50
2023-01-09T18:02:26.588Z,7.50
2023-01-09T18:04:55.398Z,7.50
2023-01-09T18:07:23.129Z,7.50
2023-01-09T18:09:53.631Z,7.50
2023-01-09T18:12:20.616Z,7.50
2023-01-09T18:14:57.451Z,7.50
2023-01-09T18:17:28.516Z,7.50
2023-01-09T18:19:57.535Z,7.40
2023-01-09T18:22:33.842Z,7.40
2023-01-09T18:25:01.431Z,7.40
2023-01-09T18:27:32.027Z,7.40
2023-01-09T18:30:03.711Z,7.40
2023-01-09T18:32:41.674Z,7.40
2023-01-09T18:35:12.408Z,7.40
2023-01-09T18:37:50.718Z,7.40
2023-01-09T18:40:26.874Z,7.40
2023-01-09T18:42:59.577Z,7.40
2023-01-09T18:45:27.135Z,7.30
2023-01-09T18:48:04.400Z,7.40
2023-01-09T18:53:29.974Z,7.40
2023-01-09T18:55:57.323Z,7.30
2023-01-09T18:58:24.976Z,7.30
2023-01-09T19:00:56.132Z,7.40
2023-01-09T19:03:23.324Z,7.30
2023-01-09T19:05:50.644Z,7.30
2023-01-09T19:08:20.794Z,7.30
2023-01-09T19:10:53.322Z,7.30
2023-01-09T19:13:21.966Z,7.30
2023-01-09T19:15:56.187Z,7.30
2023-01-09T19:18:24.736Z,7.30
2023-01-09T19:20:52.875Z,7.30
2023-01-09T19:23:24.792Z,7.30
2023-01-09T19:25:53.753Z,7.40
2023-01-09T19:28:21.951Z,7.40
2023-01-09T19:30:58.393Z,7.40
2023-01-09T19:33:26.245Z,7.30
2023-01-09T19:35:53.637Z,7.30
2023-01-09T19:38:26.802Z,7.40
2023-01-09T19:40:54.099Z,7.30
2023-01-09T19:43:27.120Z,7.30
2023-01-09T19:45:57.000Z,7.30
2023-01-09T19:48:27.530Z,7.30
2023-01-09T19:51:03.235Z,7.30
2023-01-09T19:53:32.161Z,7.30
2023-01-09T19:56:21.765Z,7.30
2023-01-09T19:58:58.689Z,7.20
2023-01-09T20:01:33.573Z,7.20
2023-01-09T20:04:05.038Z,7.20
2023-01-09T20:06:32.502Z,7.20
2023-01-09T20:09:02.671Z,7.20
2023-01-09T20:11:32.626Z,7.20
2023-01-09T20:14:03.695Z,7.20
2023-01-09T20:16:31.499Z,7.20
2023-01-09T20:19:02.175Z,7.30
2023-01-09T20:21:30.092Z,7.20
2023-01-09T20:23:59.818Z,7.20
2023-01-09T20:26:28.468Z,7.10
2023-01-09T20:28:57.444Z,7.10
2023-01-09T20:31:31.494Z,7.10
2023-01-09T20:34:00.251Z,7.10
2023-01-09T20:36:30.680Z,7.20
2023-01-09T20:39:02.713Z,7.20
2023-01-09T20:41:31.391Z,7.20
2023-01-09T20:44:01.156Z,7.20
2023-01-09T20:46:31.841Z,7.20
2023-01-09T20:49:02.343Z,7.20
2023-01-09T20:51:31.039Z,7.10
2023-01-09T20:53:58.613Z,7.10
2023-01-09T20:56:28.391Z,7.10
2023-01-09T20:58:57.063Z,7.10
2023-01-09T21:01:24.582Z,7.10
2023-01-09T21:03:53.421Z,7.10
2023-01-09T21:06:22.479Z,7.10
2023-01-09T21:08:51.034Z,7.10
2023-01-09T21:11:19.482Z,7.10
2023-01-09T21:13:46.859Z,7.10
2023-01-09T21:16:16.098Z,7.10
2023-01-09T21:18:46.076Z,7.10
2023-01-09T21:21:15.684Z,7.10
2023-01-09T21:23:53.334Z,7.00
2023-01-09T21:26:23.017Z,7.10
2023-01-09T21:28:50.991Z,7.00
2023-01-09T21:31:20.322Z,7.00
2023-01-09T21:33:49.178Z,7.00
2023-01-09T21:36:17.183Z,7.00
2023-01-09T21:38:45.644Z,7.00
2023-01-09T21:41:32.053Z,6.90
2023-01-09T21:44:17.824Z,7.00
2023-01-09T21:46:56.065Z,7.00
2023-01-09T21:49:25.643Z,7.00
2023-01-09T21:51:56.062Z,7.00
2023-01-09T21:54:23.932Z,7.00
2023-01-09T21:56:52.106Z,7.00
2023-01-09T21:59:19.849Z,6.90
2023-01-09T22:01:48.705Z,6.90
2023-01-09T22:04:17.804Z,6.90
2023-01-09T22:06:44.967Z,6.80
2023-01-09T22:09:12.735Z,6.80
2023-01-09T22:11:40.540Z,6.80
2023-01-09T22:14:10.830Z,6.90
2023-01-09T22:16:38.247Z,6.80
2023-01-09T22:19:05.759Z,6.80
2023-01-09T22:21:32.703Z,6.80
2023-01-09T22:24:01.607Z,6.80
2023-01-09T22:26:29.977Z,6.80
2023-01-09T22:28:57.373Z,6.80
2023-01-09T22:31:28.446Z,6.80
2023-01-09T22:33:58.634Z,6.80
2023-01-09T22:36:28.756Z,6.90
2023-01-09T22:39:00.176Z,6.80
2023-01-09T22:41:29.753Z,6.80
2023-01-09T22:43:56.856Z,6.70
2023-01-09T22:46:23.888Z,6.80
2023-01-09T22:48:51.080Z,6.80
2023-01-09T22:51:21.658Z,6.70
2023-01-09T22:53:50.292Z,6.80
2023-01-09T22:56:19.660Z,6.70
2023-01-09T22:58:59.045Z,6.70
2023-01-09T23:01:26.161Z,6.70
2023-01-09T23:03:55.669Z,6.70
2023-01-09T23:06:23.545Z,6.70
2023-01-09T23:08:51.170Z,6.70
2023-01-09T23:11:46.678Z,6.70
2023-01-09T23:14:13.698Z,6.60
2023-01-09T23:16:40.673Z,6.70
2023-01-09T23:19:17.369Z,6.60
2023-01-09T23:21:45.640Z,6.70
2023-01-09T23:24:14.623Z,6.60
2023-01-09T23:26:43.839Z,6.60
2023-01-09T23:29:11.831Z,6.70
2023-01-09T23:31:38.845Z,6.70
2023-01-09T23:34:08.214Z,6.60
2023-01-09T23:36:35.857Z,6.70
2023-01-09T23:39:04.252Z,6.60
2023-01-09T23:42:09.504Z,6.60
2023-01-09T23:44:36.573Z,6.60
2023-01-09T23:47:03.658Z,6.70
2023-01-09T23:49:31.371Z,6.70
2023-01-09T23:51:58.572Z,6.70
2023-01-09T23:54:27.375Z,6.60
2023-01-09T23:56:56.547Z,6.60
2023-01-09T23:59:23.886Z,6.60
